sensor_id;sensor_type;location;lat;lon;timestamp;pressure;altitude;pressure_sealevel;temperature;humidity
75166;BME280;63747;48.042;10.088;2022-12-20T00:02:19;95837.91;;;0.16;74.86
75166;BME280;63747;48.042;10.088;2022-12-20T00:05:20;95825.22;;;0.10;74.81
75166;BME280;63747;48.042;10.088;2022-12-20T00:08:20;95828.78;;;0.09;75.00
75166;BME280;63747;48.042;10.088;2022-12-20T00:11:21;95825.41;;;0.07;74.88
75166;BME280;63747;48.042;10.088;2022-12-20T00:14:23;95816.03;;;0.05;75.12
75166;BME280;63747;48.042;10.088;2022-12-20T00:17:24;95822.06;;;0.05;75.04
75166;BME280;63747;48.042;10.088;2022-12-20T00:20:25;95833.16;;;0.09;74.72
75166;BME280;63747;48.042;10.088;2022-12-20T00:23:27;95829.72;;;0.08;74.83
75166;BME280;63747;48.042;10.088;2022-12-20T00:26:30;95828.00;;;0.07;74.91
75166;BME280;63747;48.042;10.088;2022-12-20T00:29:32;95823.66;;;0.08;74.82
75166;BME280;63747;48.042;10.088;2022-12-20T00:32:33;95826.19;;;0.09;74.73
75166;BME280;63747;48.042;10.088;2022-12-20T00:35:33;95808.88;;;0.08;74.87
75166;BME280;63747;48.042;10.088;2022-12-20T00:38:34;95825.22;;;0.10;74.76
75166;BME280;63747;48.042;10.088;2022-12-20T00:41:35;95815.66;;;0.11;74.86
75166;BME280;63747;48.042;10.088;2022-12-20T00:44:36;95817.31;;;0.12;75.05
75166;BME280;63747;48.042;10.088;2022-12-20T00:47:37;95812.84;;;0.14;74.97
75166;BME280;63747;48.042;10.088;2022-12-20T00:50:37;95819.81;;;0.13;75.19
75166;BME280;63747;48.042;10.088;2022-12-20T00:53:39;95811.81;;;0.16;75.22
75166;BME280;63747;48.042;10.088;2022-12-20T00:56:40;95810.22;;;0.14;75.29
75166;BME280;63747;48.042;10.088;2022-12-20T00:59:40;95816.09;;;0.17;75.34
75166;BME280;63747;48.042;10.088;2022-12-20T01:02:41;95821.41;;;0.16;75.25
75166;BME280;63747;48.042;10.088;2022-12-20T01:05:50;95820.28;;;0.20;75.16
75166;BME280;63747;48.042;10.088;2022-12-20T01:08:53;95823.81;;;0.19;75.16
75166;BME280;63747;48.042;10.088;2022-12-20T01:11:56;95823.81;;;0.19;74.95
75166;BME280;63747;48.042;10.088;2022-12-20T01:14:57;95829.03;;;0.19;75.21
75166;BME280;63747;48.042;10.088;2022-12-20T01:17:57;95814.22;;;0.19;75.01
75166;BME280;63747;48.042;10.088;2022-12-20T01:21:06;95825.81;;;0.15;75.23
75166;BME280;63747;48.042;10.088;2022-12-20T01:24:07;95819.00;;;0.13;75.33
75166;BME280;63747;48.042;10.088;2022-12-20T01:27:08;95824.41;;;0.10;75.48
75166;BME280;63747;48.042;10.088;2022-12-20T01:30:12;95835.84;;;0.07;75.65
75166;BME280;63747;48.042;10.088;2022-12-20T01:33:16;95840.03;;;0.10;75.57
75166;BME280;63747;48.042;10.088;2022-12-20T01:36:20;95829.78;;;0.07;75.39
75166;BME280;63747;48.042;10.088;2022-12-20T01:39:24;95828.22;;;0.04;75.50
75166;BME280;63747;48.042;10.088;2022-12-20T01:42:24;95823.75;;;0.06;75.52
75166;BME280;63747;48.042;10.088;2022-12-20T01:45:28;95818.72;;;0.03;75.37
75166;BME280;63747;48.042;10.088;2022-12-20T01:48:30;95814.72;;;-0.03;75.39
75166;BME280;63747;48.042;10.088;2022-12-20T01:51:35;95801.13;;;-0.08;75.25
75166;BME280;63747;48.042;10.088;2022-12-20T01:58:01;95810.47;;;-0.18;75.62
75166;BME280;63747;48.042;10.088;2022-12-20T02:01:04;95804.31;;;-0.17;75.36
75166;BME280;63747;48.042;10.088;2022-12-20T02:04:05;95798.38;;;-0.19;75.44
75166;BME280;63747;48.042;10.088;2022-12-20T02:07:07;95796.59;;;-0.18;75.62
75166;BME280;63747;48.042;10.088;2022-12-20T02:10:10;95793.16;;;-0.19;75.52
75166;BME280;63747;48.042;10.088;2022-12-20T02:13:18;95805.59;;;-0.10;75.47
75166;BME280;63747;48.042;10.088;2022-12-20T02:16:24;95799.56;;;-0.10;75.25
75166;BME280;63747;48.042;10.088;2022-12-20T02:19:46;95801.22;;;-0.09;75.00
75166;BME280;63747;48.042;10.088;2022-12-20T02:32:38;95796.38;;;-0.15;75.29
75166;BME280;63747;48.042;10.088;2022-12-20T02:35:41;95788.78;;;-0.18;75.10
75166;BME280;63747;48.042;10.088;2022-12-20T02:38:44;95780.97;;;-0.18;75.43
75166;BME280;63747;48.042;10.088;2022-12-20T02:41:53;95775.91;;;-0.21;75.49
75166;BME280;63747;48.042;10.088;2022-12-20T02:44:59;95770.91;;;-0.24;75.41
75166;BME280;63747;48.042;10.088;2022-12-20T02:48:17;95766.63;;;-0.25;75.57
75166;BME280;63747;48.042;10.088;2022-12-20T02:51:20;95773.53;;;-0.24;75.39
75166;BME280;63747;48.042;10.088;2022-12-20T02:54:22;95781.34;;;-0.24;75.53
75166;BME280;63747;48.042;10.088;2022-12-20T02:57:28;95779.28;;;-0.19;75.61
75166;BME280;63747;48.042;10.088;2022-12-20T03:00:41;95784.19;;;-0.15;75.38
75166;BME280;63747;48.042;10.088;2022-12-20T03:03:45;95765.13;;;-0.15;75.28
75166;BME280;63747;48.042;10.088;2022-12-20T03:07:03;95775.91;;;-0.07;75.49
75166;BME280;63747;48.042;10.088;2022-12-20T03:10:05;95770.53;;;-0.04;75.70
75166;BME280;63747;48.042;10.088;2022-12-20T03:13:06;95777.97;;;0.02;75.53
75166;BME280;63747;48.042;10.088;2022-12-20T03:16:07;95774.88;;;0.10;75.45
75166;BME280;63747;48.042;10.088;2022-12-20T03:19:10;95777.47;;;0.10;75.49
75166;BME280;63747;48.042;10.088;2022-12-20T03:22:10;95767.44;;;0.04;75.44
75166;BME280;63747;48.042;10.088;2022-12-20T03:25:11;95762.97;;;0.06;75.45
75166;BME280;63747;48.042;10.088;2022-12-20T03:28:14;95751.81;;;0.04;75.69
75166;BME280;63747;48.042;10.088;2022-12-20T03:31:15;95755.97;;;0.06;75.65
75166;BME280;63747;48.042;10.088;2022-12-20T03:34:16;95750.69;;;0.08;75.57
75166;BME280;63747;48.042;10.088;2022-12-20T03:37:17;95753.28;;;0.08;75.74
75166;BME280;63747;48.042;10.088;2022-12-20T03:40:18;95742.22;;;0.04;75.70
75166;BME280;63747;48.042;10.088;2022-12-20T03:43:18;95750.03;;;0.04;75.68
75166;BME280;63747;48.042;10.088;2022-12-20T03:46:19;95736.78;;;0.07;75.59
75166;BME280;63747;48.042;10.088;2022-12-20T03:49:20;95744.59;;;0.07;75.60
75166;BME280;63747;48.042;10.088;2022-12-20T03:52:20;95749.81;;;0.07;75.62
75166;BME280;63747;48.042;10.088;2022-12-20T03:55:21;95740.34;;;0.06;75.61
75166;BME280;63747;48.042;10.088;2022-12-20T03:58:23;95730.66;;;0.08;75.47
75166;BME280;63747;48.042;10.088;2022-12-20T04:01:26;95739.31;;;0.09;75.40
75166;BME280;63747;48.042;10.088;2022-12-20T04:04:28;95734.38;;;0.04;75.64
75166;BME280;63747;48.042;10.088;2022-12-20T04:07:29;95726.84;;;-0.00;75.64
75166;BME280;63747;48.042;10.088;2022-12-20T04:10:30;95731.13;;;0.01;75.76
75166;BME280;63747;48.042;10.088;2022-12-20T04:13:30;95724.16;;;0.01;75.83
75166;BME280;63747;48.042;10.088;2022-12-20T04:16:32;95705.81;;;0.03;75.61
75166;BME280;63747;48.042;10.088;2022-12-20T04:19:33;95708.22;;;0.06;75.88
75166;BME280;63747;48.042;10.088;2022-12-20T04:22:34;95703.94;;;0.05;75.63
75166;BME280;63747;48.042;10.088;2022-12-20T04:25:35;95704.06;;;0.03;75.68
75166;BME280;63747;48.042;10.088;2022-12-20T04:28:36;95703.00;;;0.06;75.80
75166;BME280;63747;48.042;10.088;2022-12-20T04:31:37;95710.72;;;0.07;75.80
75166;BME280;63747;48.042;10.088;2022-12-20T04:34:46;95710.72;;;0.07;75.86
75166;BME280;63747;48.042;10.088;2022-12-20T04:37:47;95710.72;;;0.07;75.78
75166;BME280;63747;48.042;10.088;2022-12-20T04:40:51;95700.13;;;0.10;75.77
75166;BME280;63747;48.042;10.088;2022-12-20T04:43:55;95693.41;;;0.06;75.70
75166;BME280;63747;48.042;10.088;2022-12-20T04:46:57;95688.53;;;0.02;75.87
75166;BME280;63747;48.042;10.088;2022-12-20T04:50:01;95687.75;;;-0.00;76.13
75166;BME280;63747;48.042;10.088;2022-12-20T04:53:03;95686.09;;;-0.01;75.84
75166;BME280;63747;48.042;10.088;2022-12-20T04:56:26;95684.53;;;-0.04;76.07
75166;BME280;63747;48.042;10.088;2022-12-20T04:59:27;95684.63;;;-0.06;75.88
75166;BME280;63747;48.042;10.088;2022-12-20T05:02:28;95686.59;;;-0.09;75.90
75166;BME280;63747;48.042;10.088;2022-12-20T05:05:30;95686.59;;;-0.09;75.91
75166;BME280;63747;48.042;10.088;2022-12-20T05:08:31;95682.09;;;-0.07;76.06
75166;BME280;63747;48.042;10.088;2022-12-20T05:11:34;95672.97;;;0.00;75.96
75166;BME280;63747;48.042;10.088;2022-12-20T05:14:35;95682.53;;;-0.00;75.81
75166;BME280;63747;48.042;10.088;2022-12-20T05:17:36;95684.53;;;-0.04;76.17
75166;BME280;63747;48.042;10.088;2022-12-20T05:20:37;95673.91;;;-0.01;76.10
75166;BME280;63747;48.042;10.088;2022-12-20T05:23:46;95670.56;;;-0.03;75.93
75166;BME280;63747;48.042;10.088;2022-12-20T05:27:06;95671.88;;;-0.10;75.87
75166;BME280;63747;48.042;10.088;2022-12-20T05:30:07;95664.78;;;-0.08;75.93
75166;BME280;63747;48.042;10.088;2022-12-20T05:33:08;95665.44;;;-0.05;75.77
75166;BME280;63747;48.042;10.088;2022-12-20T05:36:20;95657.75;;;-0.06;75.68
75166;BME280;63747;48.042;10.088;2022-12-20T05:39:20;95647.50;;;-0.09;75.60
75166;BME280;63747;48.042;10.088;2022-12-20T05:42:21;95643.13;;;-0.09;75.76
75166;BME280;63747;48.042;10.088;2022-12-20T05:45:23;95639.69;;;-0.09;75.71
75166;BME280;63747;48.042;10.088;2022-12-20T05:48:24;95644.78;;;-0.08;76.04
75166;BME280;63747;48.042;10.088;2022-12-20T05:51:27;95650.81;;;-0.07;76.07
75166;BME280;63747;48.042;10.088;2022-12-20T05:54:28;95653.97;;;-0.02;76.08
75166;BME280;63747;48.042;10.088;2022-12-20T05:57:29;95653.03;;;-0.01;76.24
75166;BME280;63747;48.042;10.088;2022-12-20T06:00:51;95650.34;;;0.01;76.36
75166;BME280;63747;48.042;10.088;2022-12-20T06:03:52;95643.47;;;-0.00;76.25
75166;BME280;63747;48.042;10.088;2022-12-20T06:06:53;95645.78;;;0.04;76.27
75166;BME280;63747;48.042;10.088;2022-12-20T06:09:55;95645.56;;;0.07;76.27
75166;BME280;63747;48.042;10.088;2022-12-20T06:12:56;95642.56;;;0.13;76.20
75166;BME280;63747;48.042;10.088;2022-12-20T06:15:57;95638.72;;;0.19;76.30
75166;BME280;63747;48.042;10.088;2022-12-20T06:19:08;95638.56;;;0.22;76.34
75166;BME280;63747;48.042;10.088;2022-12-20T06:22:09;95635.63;;;0.27;76.33
75166;BME280;63747;48.042;10.088;2022-12-20T06:25:10;95634.50;;;0.31;76.48
75166;BME280;63747;48.042;10.088;2022-12-20T06:28:15;95630.13;;;0.31;76.38
75166;BME280;63747;48.042;10.088;2022-12-20T06:31:24;95628.78;;;0.38;76.25
75166;BME280;63747;48.042;10.088;2022-12-20T06:34:25;95620.66;;;0.43;76.52
75166;BME280;63747;48.042;10.088;2022-12-20T06:37:26;95622.31;;;0.44;76.44
75166;BME280;63747;48.042;10.088;2022-12-20T06:40:34;95624.94;;;0.44;76.51
75166;BME280;63747;48.042;10.088;2022-12-20T06:43:35;95618.78;;;0.45;76.52
75166;BME280;63747;48.042;10.088;2022-12-20T06:46:36;95616.28;;;0.43;76.67
75166;BME280;63747;48.042;10.088;2022-12-20T06:49:52;95617.94;;;0.44;76.74
75166;BME280;63747;48.042;10.088;2022-12-20T06:52:53;95620.66;;;0.43;76.75
75166;BME280;63747;48.042;10.088;2022-12-20T06:55:54;95620.44;;;0.46;76.95
75166;BME280;63747;48.042;10.088;2022-12-20T06:58:55;95620.97;;;0.51;76.98
75166;BME280;63747;48.042;10.088;2022-12-20T07:01:56;95624.13;;;0.56;76.80
75166;BME280;63747;48.042;10.088;2022-12-20T07:04:57;95621.13;;;0.62;76.65
75166;BME280;63747;48.042;10.088;2022-12-20T07:07:58;95624.34;;;0.66;76.61
75166;BME280;63747;48.042;10.088;2022-12-20T07:11:03;95622.44;;;0.68;76.59
75166;BME280;63747;48.042;10.088;2022-12-20T07:14:05;95625.06;;;0.68;76.83
75166;BME280;63747;48.042;10.088;2022-12-20T07:17:06;95621.84;;;0.64;76.81
75166;BME280;63747;48.042;10.088;2022-12-20T07:20:07;95624.22;;;0.67;76.76
75166;BME280;63747;48.042;10.088;2022-12-20T07:23:12;95617.16;;;0.69;76.84
75166;BME280;63747;48.042;10.088;2022-12-20T07:26:13;95616.41;;;0.67;76.72
75166;BME280;63747;48.042;10.088;2022-12-20T07:29:15;95618.94;;;0.69;76.84
75166;BME280;63747;48.042;10.088;2022-12-20T07:32:16;95624.03;;;0.70;76.61
75166;BME280;63747;48.042;10.088;2022-12-20T07:35:17;95625.69;;;0.71;76.78
75166;BME280;63747;48.042;10.088;2022-12-20T07:38:17;95629.03;;;0.73;76.91
75166;BME280;63747;48.042;10.088;2022-12-20T07:41:18;95623.81;;;0.73;76.61
75166;BME280;63747;48.042;10.088;2022-12-20T07:44:19;95619.44;;;0.74;76.65
75166;BME280;63747;48.042;10.088;2022-12-20T07:47:20;95624.34;;;0.78;76.47
75166;BME280;63747;48.042;10.088;2022-12-20T07:50:21;95625.06;;;0.81;76.39
75166;BME280;63747;48.042;10.088;2022-12-20T07:53:23;95628.09;;;0.87;76.42
75166;BME280;63747;48.042;10.088;2022-12-20T07:56:26;95638.25;;;0.92;76.09
75166;BME280;63747;48.042;10.088;2022-12-20T07:59:34;95636.34;;;0.94;76.22
75166;BME280;63747;48.042;10.088;2022-12-20T08:02:43;95625.31;;;0.90;76.01
75166;BME280;63747;48.042;10.088;2022-12-20T08:05:48;95635.41;;;0.95;76.07
75166;BME280;63747;48.042;10.088;2022-12-20T08:08:53;95639.72;;;0.96;76.26
75166;BME280;63747;48.042;10.088;2022-12-20T08:11:56;95640.44;;;0.98;76.24
75166;BME280;63747;48.042;10.088;2022-12-20T08:14:57;95644.19;;;1.06;76.05
75166;BME280;63747;48.042;10.088;2022-12-20T08:17:58;95633.75;;;1.06;75.98
75166;BME280;63747;48.042;10.088;2022-12-20T08:20:59;95632.28;;;1.15;76.01
75166;BME280;63747;48.042;10.088;2022-12-20T08:24:00;95634.81;;;1.17;76.08
75166;BME280;63747;48.042;10.088;2022-12-20T08:27:01;95633.03;;;1.17;75.79
75166;BME280;63747;48.042;10.088;2022-12-20T08:30:02;95626.44;;;1.24;75.86
75166;BME280;63747;48.042;10.088;2022-12-20T08:33:02;95626.00;;;1.30;75.53
75166;BME280;63747;48.042;10.088;2022-12-20T08:36:10;95632.69;;;1.34;75.54
75166;BME280;63747;48.042;10.088;2022-12-20T08:39:11;95635.09;;;1.38;75.44
75166;BME280;63747;48.042;10.088;2022-12-20T08:42:11;95634.75;;;1.42;75.46
75166;BME280;63747;48.042;10.088;2022-12-20T08:45:12;95630.88;;;1.48;75.30
75166;BME280;63747;48.042;10.088;2022-12-20T08:48:20;95636.84;;;1.50;75.09
75166;BME280;63747;48.042;10.088;2022-12-20T08:51:21;95631.09;;;1.57;75.11
75166;BME280;63747;48.042;10.088;2022-12-20T08:54:22;95627.94;;;1.65;74.86
75166;BME280;63747;48.042;10.088;2022-12-20T08:57:23;95629.28;;;1.71;74.64
75166;BME280;63747;48.042;10.088;2022-12-20T09:00:39;95621.84;;;1.77;74.54
75166;BME280;63747;48.042;10.088;2022-12-20T09:03:40;95627.09;;;1.88;74.55
75166;BME280;63747;48.042;10.088;2022-12-20T09:06:41;95634.31;;;1.98;74.44
75166;BME280;63747;48.042;10.088;2022-12-20T09:09:41;95618.78;;;2.07;74.17
75166;BME280;63747;48.042;10.088;2022-12-20T09:12:44;95625.34;;;2.13;74.05
75166;BME280;63747;48.042;10.088;2022-12-20T09:15:45;95621.28;;;2.09;73.79
75166;BME280;63747;48.042;10.088;2022-12-20T09:18:53;95623.19;;;2.07;73.78
75166;BME280;63747;48.042;10.088;2022-12-20T09:21:53;95617.72;;;2.10;73.75
75166;BME280;63747;48.042;10.088;2022-12-20T09:24:54;95619.16;;;2.14;73.60
75166;BME280;63747;48.042;10.088;2022-12-20T09:27:55;95606.59;;;2.19;73.56
75166;BME280;63747;48.042;10.088;2022-12-20T09:30:58;95611.47;;;2.24;73.36
75166;BME280;63747;48.042;10.088;2022-12-20T09:33:58;95606.75;;;2.29;73.29
75166;BME280;63747;48.042;10.088;2022-12-20T09:37:00;95612.16;;;2.38;73.22
75166;BME280;63747;48.042;10.088;2022-12-20T09:40:00;95601.22;;;2.45;73.30
75166;BME280;63747;48.042;10.088;2022-12-20T09:43:01;95605.78;;;2.54;73.08
75166;BME280;63747;48.042;10.088;2022-12-20T09:46:02;95610.69;;;2.69;72.83
75166;BME280;63747;48.042;10.088;2022-12-20T09:49:03;95596.22;;;2.88;72.53
75166;BME280;63747;48.042;10.088;2022-12-20T09:56:08;95589.31;;;3.32;71.24
75166;BME280;63747;48.042;10.088;2022-12-20T09:59:12;95589.22;;;3.44;71.17
75166;BME280;63747;48.042;10.088;2022-12-20T10:02:19;95581.59;;;3.52;70.95
75166;BME280;63747;48.042;10.088;2022-12-20T10:05:44;95574.34;;;3.56;70.72
75166;BME280;63747;48.042;10.088;2022-12-20T10:08:54;95585.28;;;3.61;70.43
75166;BME280;63747;48.042;10.088;2022-12-20T10:15:33;95570.75;;;3.57;70.65
75166;BME280;63747;48.042;10.088;2022-12-20T10:21:46;95561.66;;;3.72;70.31
75166;BME280;63747;48.042;10.088;2022-12-20T10:24:59;95557.50;;;3.81;70.12
75166;BME280;63747;48.042;10.088;2022-12-20T10:28:04;95550.53;;;3.91;69.87
75166;BME280;63747;48.042;10.088;2022-12-20T10:31:13;95545.81;;;4.06;69.73
75166;BME280;63747;48.042;10.088;2022-12-20T10:34:14;95545.53;;;4.20;69.21
75166;BME280;63747;48.042;10.088;2022-12-20T10:37:14;95533.47;;;4.29;69.04
75166;BME280;63747;48.042;10.088;2022-12-20T10:40:25;95515.00;;;4.40;68.85
75166;BME280;63747;48.042;10.088;2022-12-20T10:43:27;95517.72;;;4.50;68.84
75166;BME280;63747;48.042;10.088;2022-12-20T10:46:39;95516.63;;;4.52;68.52
75166;BME280;63747;48.042;10.088;2022-12-20T10:49:40;95519.31;;;4.62;68.46
75166;BME280;63747;48.042;10.088;2022-12-20T10:52:42;95509.56;;;4.74;68.09
75166;BME280;63747;48.042;10.088;2022-12-20T10:55:43;95497.31;;;4.84;68.08
75166;BME280;63747;48.042;10.088;2022-12-20T10:58:51;95484.34;;;4.92;67.91
75166;BME280;63747;48.042;10.088;2022-12-20T11:01:52;95490.59;;;5.01;67.59
75166;BME280;63747;48.042;10.088;2022-12-20T11:05:23;95487.00;;;5.02;67.21
75166;BME280;63747;48.042;10.088;2022-12-20T11:08:26;95487.41;;;4.97;67.47
75166;BME280;63747;48.042;10.088;2022-12-20T11:11:27;95479.94;;;4.93;67.30
75166;BME280;63747;48.042;10.088;2022-12-20T11:14:29;95471.88;;;4.84;67.54
75166;BME280;63747;48.042;10.088;2022-12-20T11:17:33;95463.69;;;4.78;67.38
75166;BME280;63747;48.042;10.088;2022-12-20T11:28:13;95453.13;;;4.89;66.89
75166;BME280;63747;48.042;10.088;2022-12-20T11:31:32;95458.38;;;4.89;66.85
75166;BME280;63747;48.042;10.088;2022-12-20T11:38:16;95454.63;;;4.92;66.85
75166;BME280;63747;48.042;10.088;2022-12-20T11:41:44;95452.00;;;4.92;66.78
75166;BME280;63747;48.042;10.088;2022-12-20T11:45:00;95439.00;;;4.90;67.11
75166;BME280;63747;48.042;10.088;2022-12-20T11:51:44;95426.50;;;4.73;67.05
75166;BME280;63747;48.042;10.088;2022-12-20T11:54:55;95416.13;;;4.71;67.02
75166;BME280;63747;48.042;10.088;2022-12-20T11:58:18;95411.16;;;4.68;67.01
75166;BME280;63747;48.042;10.088;2022-12-20T12:01:28;95401.94;;;4.53;67.09
75166;BME280;63747;48.042;10.088;2022-12-20T12:04:39;95402.47;;;4.47;67.41
75166;BME280;63747;48.042;10.088;2022-12-20T12:07:45;95389.94;;;4.50;67.60
75166;BME280;63747;48.042;10.088;2022-12-20T12:11:14;95397.53;;;4.53;67.13
75166;BME280;63747;48.042;10.088;2022-12-20T12:14:28;95399.63;;;4.59;67.19
75166;BME280;63747;48.042;10.088;2022-12-20T12:17:59;95403.81;;;4.72;67.06
75166;BME280;63747;48.042;10.088;2022-12-20T12:21:07;95410.50;;;4.76;66.84
75166;BME280;63747;48.042;10.088;2022-12-20T12:24:24;95406.47;;;4.81;66.72
75166;BME280;63747;48.042;10.088;2022-12-20T12:27:28;95402.34;;;4.79;66.71
75166;BME280;63747;48.042;10.088;2022-12-20T12:30:36;95405.78;;;4.79;67.07
75166;BME280;63747;48.042;10.088;2022-12-20T12:34:03;95389.63;;;4.84;66.68
75166;BME280;63747;48.042;10.088;2022-12-20T12:37:19;95389.25;;;4.88;66.76
75166;BME280;63747;48.042;10.088;2022-12-20T12:43:44;95377.38;;;5.04;66.40
75166;BME280;63747;48.042;10.088;2022-12-20T12:46:54;95370.22;;;5.25;65.91
75166;BME280;63747;48.042;10.088;2022-12-20T12:50:00;95373.56;;;5.47;65.65
75166;BME280;63747;48.042;10.088;2022-12-20T12:53:07;95367.06;;;5.60;65.22
75166;BME280;63747;48.042;10.088;2022-12-20T13:02:32;95362.63;;;5.32;65.51
75166;BME280;63747;48.042;10.088;2022-12-20T13:05:34;95373.25;;;5.11;65.55
75166;BME280;63747;48.042;10.088;2022-12-20T13:11:57;95378.44;;;4.82;66.27
75166;BME280;63747;48.042;10.088;2022-12-20T13:14:57;95361.97;;;4.80;66.17
75166;BME280;63747;48.042;10.088;2022-12-20T13:21:30;95354.91;;;4.71;66.49
75166;BME280;63747;48.042;10.088;2022-12-20T13:34:37;95325.88;;;4.63;66.53
75166;BME280;63747;48.042;10.088;2022-12-20T13:44:39;95346.88;;;4.32;66.69
75166;BME280;63747;48.042;10.088;2022-12-20T13:47:47;95346.19;;;4.30;66.80
75166;BME280;63747;48.042;10.088;2022-12-20T13:50:51;95352.00;;;4.33;67.02
75166;BME280;63747;48.042;10.088;2022-12-20T13:54:07;95367.09;;;4.41;67.01
75166;BME280;63747;48.042;10.088;2022-12-20T13:57:16;95366.97;;;4.43;66.83
75166;BME280;63747;48.042;10.088;2022-12-20T14:00:22;95365.03;;;4.45;67.00
75166;BME280;63747;48.042;10.088;2022-12-20T14:03:27;95364.06;;;4.46;66.96
75166;BME280;63747;48.042;10.088;2022-12-20T14:06:28;95357.16;;;4.45;67.17
75166;BME280;63747;48.042;10.088;2022-12-20T14:09:34;95354.66;;;4.43;67.37
75166;BME280;63747;48.042;10.088;2022-12-20T14:12:35;95351.59;;;4.38;67.45
75166;BME280;63747;48.042;10.088;2022-12-20T14:15:35;95354.75;;;4.32;67.49
75166;BME280;63747;48.042;10.088;2022-12-20T14:18:37;95353.88;;;4.22;67.69
75166;BME280;63747;48.042;10.088;2022-12-20T14:21:41;95353.59;;;4.15;67.70
75166;BME280;63747;48.042;10.088;2022-12-20T14:24:43;95355.91;;;4.09;67.89
75166;BME280;63747;48.042;10.088;2022-12-20T14:27:44;95338.28;;;3.99;67.99
75166;BME280;63747;48.042;10.088;2022-12-20T14:30:47;95331.66;;;3.95;68.29
75166;BME280;63747;48.042;10.088;2022-12-20T14:33:48;95356.03;;;3.86;68.17
75166;BME280;63747;48.042;10.088;2022-12-20T14:36:50;95357.50;;;3.79;68.46
75166;BME280;63747;48.042;10.088;2022-12-20T14:39:58;95351.56;;;3.77;68.61
75166;BME280;63747;48.042;10.088;2022-12-20T14:43:13;95350.53;;;3.68;68.79
75166;BME280;63747;48.042;10.088;2022-12-20T14:46:19;95345.03;;;3.71;68.66
75166;BME280;63747;48.042;10.088;2022-12-20T14:49:25;95346.00;;;3.70;68.99
75166;BME280;63747;48.042;10.088;2022-12-20T14:52:34;95337.56;;;3.67;68.81
75166;BME280;63747;48.042;10.088;2022-12-20T14:55:44;95343.09;;;3.52;69.00
75166;BME280;63747;48.042;10.088;2022-12-20T14:58:45;95347.66;;;3.50;69.11
75166;BME280;63747;48.042;10.088;2022-12-20T15:01:46;95334.34;;;3.42;69.40
75166;BME280;63747;48.042;10.088;2022-12-20T15:04:46;95333.16;;;3.35;69.35
75166;BME280;63747;48.042;10.088;2022-12-20T15:07:51;95326.06;;;3.26;69.52
75166;BME280;63747;48.042;10.088;2022-12-20T15:13:55;95335.16;;;3.11;69.71
75166;BME280;63747;48.042;10.088;2022-12-20T15:16:56;95333.75;;;3.07;69.89
75166;BME280;63747;48.042;10.088;2022-12-20T15:19:58;95342.81;;;3.03;70.08
75166;BME280;63747;48.042;10.088;2022-12-20T15:22:58;95341.50;;;2.97;70.15
75166;BME280;63747;48.042;10.088;2022-12-20T15:25:59;95340.69;;;2.96;70.16
75166;BME280;63747;48.042;10.088;2022-12-20T15:29:00;95343.16;;;2.98;70.07
75166;BME280;63747;48.042;10.088;2022-12-20T15:32:06;95346.19;;;2.93;70.39
75166;BME280;63747;48.042;10.088;2022-12-20T15:35:13;95329.75;;;2.91;70.31
75166;BME280;63747;48.042;10.088;2022-12-20T15:38:22;95328.34;;;2.87;70.47
75166;BME280;63747;48.042;10.088;2022-12-20T15:41:27;95332.75;;;2.87;70.42
75166;BME280;63747;48.042;10.088;2022-12-20T15:44:29;95328.56;;;2.84;70.57
75166;BME280;63747;48.042;10.088;2022-12-20T15:47:30;95329.41;;;2.85;70.43
75166;BME280;63747;48.042;10.088;2022-12-20T15:50:31;95324.91;;;2.76;70.68
75166;BME280;63747;48.042;10.088;2022-12-20T15:53:33;95316.50;;;2.72;70.66
75166;BME280;63747;48.042;10.088;2022-12-20T15:56:33;95318.63;;;2.67;70.77
75166;BME280;63747;48.042;10.088;2022-12-20T15:59:34;95310.44;;;2.60;70.92
75166;BME280;63747;48.042;10.088;2022-12-20T16:02:35;95309.13;;;2.55;71.09
75166;BME280;63747;48.042;10.088;2022-12-20T16:05:36;95319.84;;;2.52;71.16
75166;BME280;63747;48.042;10.088;2022-12-20T16:08:40;95319.38;;;2.47;71.10
75166;BME280;63747;48.042;10.088;2022-12-20T16:11:41;95296.19;;;2.42;71.41
75166;BME280;63747;48.042;10.088;2022-12-20T16:14:43;95304.41;;;2.37;71.39
75166;BME280;63747;48.042;10.088;2022-12-20T16:17:43;95304.03;;;2.31;71.72
75166;BME280;63747;48.042;10.088;2022-12-20T16:20:44;95307.38;;;2.22;71.67
75166;BME280;63747;48.042;10.088;2022-12-20T16:23:46;95307.03;;;2.15;71.90
75166;BME280;63747;48.042;10.088;2022-12-20T16:26:49;95312.41;;;2.13;72.07
75166;BME280;63747;48.042;10.088;2022-12-20T16:29:50;95317.28;;;2.07;72.03
75166;BME280;63747;48.042;10.088;2022-12-20T16:32:51;95311.34;;;2.05;72.32
75166;BME280;63747;48.042;10.088;2022-12-20T16:35:54;95306.81;;;2.07;72.33
75166;BME280;63747;48.042;10.088;2022-12-20T16:38:55;95304.78;;;2.10;72.23
75166;BME280;63747;48.042;10.088;2022-12-20T16:41:56;95313.94;;;2.16;72.12
75166;BME280;63747;48.042;10.088;2022-12-20T16:44:57;95317.84;;;2.22;72.08
75166;BME280;63747;48.042;10.088;2022-12-20T16:47:57;95324.66;;;2.24;71.81
75166;BME280;63747;48.042;10.088;2022-12-20T16:50:58;95323.44;;;2.28;71.78
75166;BME280;63747;48.042;10.088;2022-12-20T16:54:11;95314.41;;;2.32;71.75
75166;BME280;63747;48.042;10.088;2022-12-20T16:57:12;95318.56;;;2.35;71.60
75166;BME280;63747;48.042;10.088;2022-12-20T17:00:22;95314.50;;;2.31;71.61
75166;BME280;63747;48.042;10.088;2022-12-20T17:03:24;95321.53;;;2.30;71.85
75166;BME280;63747;48.042;10.088;2022-12-20T17:06:25;95330.31;;;2.29;71.84
75166;BME280;63747;48.042;10.088;2022-12-20T17:09:25;95312.41;;;2.25;71.71
75166;BME280;63747;48.042;10.088;2022-12-20T17:12:26;95320.13;;;2.26;71.85
75166;BME280;63747;48.042;10.088;2022-12-20T17:15:29;95317.13;;;2.31;71.66
75166;BME280;63747;48.042;10.088;2022-12-20T17:18:30;95309.28;;;2.31;71.70
75166;BME280;63747;48.042;10.088;2022-12-20T17:21:41;95308.44;;;2.30;71.75
75166;BME280;63747;48.042;10.088;2022-12-20T17:24:42;95303.47;;;2.27;71.66
75166;BME280;63747;48.042;10.088;2022-12-20T17:27:43;95310.34;;;2.28;71.58